sensor_id;sensor_type;location;lat;lon;timestamp;temperature;humidity
7445;DHT22;3764;48.126;11.594;2022-07-10T00:00:41;19.50;99.90
7445;DHT22;3764;48.126;11.594;2022-07-10T00:03:10;19.50;99.90
7445;DHT22;3764;48.126;11.594;2022-07-10T00:05:37;19.50;99.90
7445;DHT22;3764;48.126;11.594;2022-07-10T00:08:19;19.50;99.90
7445;DHT22;3764;48.126;11.594;2022-07-10T00:10:46;19.50;99.90
7445;DHT22;3764;48.126;11.594;2022-07-10T00:13:13;19.50;99.90
7445;DHT22;3764;48.126;11.594;2022-07-10T00:15:40;19.50;99.90
7445;DHT22;3764;48.126;11.594;2022-07-10T00:18:08;19.50;99.90
7445;DHT22;3764;48.126;11.594;2022-07-10T00:20:36;19.40;99.90
7445;DHT22;3764;48.126;11.594;2022-07-10T00:23:04;19.40;99.90
7445;DHT22;3764;48.126;11.594;2022-07-10T00:25:31;19.40;99.90
7445;DHT22;3764;48.126;11.594;2022-07-10T00:27:59;19.30;99.90
7445;DHT22;3764;48.126;11.594;2022-07-10T00:30:26;19.30;99.90
7445;DHT22;3764;48.126;11.594;2022-07-10T00:32:53;19.30;99.90
7445;DHT22;3764;48.126;11.594;2022-07-10T00:35:21;19.30;99.90
7445;DHT22;3764;48.126;11.594;2022-07-10T00:37:49;19.30;99.90
7445;DHT22;3764;48.126;11.594;2022-07-10T00:40:16;19.20;99.90
7445;DHT22;3764;48.126;11.594;2022-07-10T00:42:43;19.10;99.90
7445;DHT22;3764;48.126;11.594;2022-07-10T00:45:10;19.10;99.90
7445;DHT22;3764;48.126;11.594;2022-07-10T00:47:37;19.10;99.90
7445;DHT22;3764;48.126;11.594;2022-07-10T00:50:06;18.90;99.90
7445;DHT22;3764;48.126;11.594;2022-07-10T00:52:34;18.90;99.90
7445;DHT22;3764;48.126;11.594;2022-07-10T00:55:07;18.80;99.90
7445;DHT22;3764;48.126;11.594;2022-07-10T00:57:36;18.70;99.90
7445;DHT22;3764;48.126;11.594;2022-07-10T01:00:05;18.70;99.90
7445;DHT22;3764;48.126;11.594;2022-07-10T01:02:32;18.60;99.90
7445;DHT22;3764;48.126;11.594;2022-07-10T01:04:59;18.50;99.90
7445;DHT22;3764;48.126;11.594;2022-07-10T01:07:27;18.50;99.90
7445;DHT22;3764;48.126;11.594;2022-07-10T01:09:54;18.40;99.90
7445;DHT22;3764;48.126;11.594;2022-07-10T01:12:23;18.30;99.90
7445;DHT22;3764;48.126;11.594;2022-07-10T01:14:51;18.30;99.90
7445;DHT22;3764;48.126;11.594;2022-07-10T01:17:18;18.20;99.90
7445;DHT22;3764;48.126;11.594;2022-07-10T01:19:45;18.20;99.90
7445;DHT22;3764;48.126;11.594;2022-07-10T01:22:14;18.20;99.90
7445;DHT22;3764;48.126;11.594;2022-07-10T01:24:41;18.20;99.90
7445;DHT22;3764;48.126;11.594;2022-07-10T01:27:08;18.20;99.90
7445;DHT22;3764;48.126;11.594;2022-07-10T01:29:35;18.10;99.90
7445;DHT22;3764;48.126;11.594;2022-07-10T01:32:03;18.10;99.90
7445;DHT22;3764;48.126;11.594;2022-07-10T01:34:30;18.10;99.90
7445;DHT22;3764;48.126;11.594;2022-07-10T01:36:57;18.00;99.90
7445;DHT22;3764;48.126;11.594;2022-07-10T01:39:25;18.00;99.90
7445;DHT22;3764;48.126;11.594;2022-07-10T01:41:52;18.00;99.90
7445;DHT22;3764;48.126;11.594;2022-07-10T01:44:19;17.90;99.90
7445;DHT22;3764;48.126;11.594;2022-07-10T01:46:47;17.90;99.90
7445;DHT22;3764;48.126;11.594;2022-07-10T01:49:15;17.90;99.90
7445;DHT22;3764;48.126;11.594;2022-07-10T01:51:42;17.90;99.90
7445;DHT22;3764;48.126;11.594;2022-07-10T01:54:09;17.90;99.90
7445;DHT22;3764;48.126;11.594;2022-07-10T01:56:38;17.80;99.90
7445;DHT22;3764;48.126;11.594;2022-07-10T01:59:05;17.80;99.90
7445;DHT22;3764;48.126;11.594;2022-07-10T02:01:32;17.80;99.90
7445;DHT22;3764;48.126;11.594;2022-07-10T02:03:59;17.80;99.90
7445;DHT22;3764;48.126;11.594;2022-07-10T02:06:43;17.80;99.90
7445;DHT22;3764;48.126;11.594;2022-07-10T02:09:10;17.70;99.90
7445;DHT22;3764;48.126;11.594;2022-07-10T02:11:40;17.80;99.90
7445;DHT22;3764;48.126;11.594;2022-07-10T02:14:07;17.70;99.90
7445;DHT22;3764;48.126;11.594;2022-07-10T02:16:34;17.70;99.90
7445;DHT22;3764;48.126;11.594;2022-07-10T02:19:02;17.70;99.90
7445;DHT22;3764;48.126;11.594;2022-07-10T02:21:29;17.70;99.90
7445;DHT22;3764;48.126;11.594;2022-07-10T02:23:56;17.70;99.90
7445;DHT22;3764;48.126;11.594;2022-07-10T02:26:23;17.70;99.90
7445;DHT22;3764;48.126;11.594;2022-07-10T02:28:52;17.70;99.90
7445;DHT22;3764;48.126;11.594;2022-07-10T02:31:19;17.70;99.90
7445;DHT22;3764;48.126;11.594;2022-07-10T02:33:46;17.70;99.90
7445;DHT22;3764;48.126;11.594;2022-07-10T02:36:13;17.70;99.90
7445;DHT22;3764;48.126;11.594;2022-07-10T02:38:40;17.70;99.90
7445;DHT22;3764;48.126;11.594;2022-07-10T02:41:07;17.70;99.90
7445;DHT22;3764;48.126;11.594;2022-07-10T02:43:34;17.70;99.90
7445;DHT22;3764;48.126;11.594;2022-07-10T02:46:03;17.70;99.90
7445;DHT22;3764;48.126;11.594;2022-07-10T02:48:30;17.70;99.90
7445;DHT22;3764;48.126;11.594;2022-07-10T02:50:57;17.60;99.90
7445;DHT22;3764;48.126;11.594;2022-07-10T02:53:24;17.60;99.90
7445;DHT22;3764;48.126;11.594;2022-07-10T02:55:51;17.60;99.90
7445;DHT22;3764;48.126;11.594;2022-07-10T02:58:18;17.50;99.90
7445;DHT22;3764;48.126;11.594;2022-07-10T03:00:46;17.50;99.90
7445;DHT22;3764;48.126;11.594;2022-07-10T03:03:14;17.50;99.90
7445;DHT22;3764;48.126;11.594;2022-07-10T03:05:43;17.50;99.90
7445;DHT22;3764;48.126;11.594;2022-07-10T03:08:10;17.50;99.90
7445;DHT22;3764;48.126;11.594;2022-07-10T03:10:37;17.40;99.90
7445;DHT22;3764;48.126;11.594;2022-07-10T03:13:04;17.40;99.90
7445;DHT22;3764;48.126;11.594;2022-07-10T03:15:31;17.30;99.90
7445;DHT22;3764;48.126;11.594;2022-07-10T03:17:59;17.30;99.90
7445;DHT22;3764;48.126;11.594;2022-07-10T03:20:27;17.30;99.90
7445;DHT22;3764;48.126;11.594;2022-07-10T03:22:54;17.30;99.90
7445;DHT22;3764;48.126;11.594;2022-07-10T03:25:21;17.30;99.90
7445;DHT22;3764;48.126;11.594;2022-07-10T03:27:48;17.30;99.90
7445;DHT22;3764;48.126;11.594;2022-07-10T03:30:16;17.30;99.90
7445;DHT22;3764;48.126;11.594;2022-07-10T03:32:43;17.30;99.90
7445;DHT22;3764;48.126;11.594;2022-07-10T03:35:10;17.30;99.90
7445;DHT22;3764;48.126;11.594;2022-07-10T03:37:38;17.30;99.90
7445;DHT22;3764;48.126;11.594;2022-07-10T03:40:06;17.30;99.90
7445;DHT22;3764;48.126;11.594;2022-07-10T03:42:33;17.30;99.90
7445;DHT22;3764;48.126;11.594;2022-07-10T03:45:00;17.20;99.90
7445;DHT22;3764;48.126;11.594;2022-07-10T03:47:27;17.20;99.90
7445;DHT22;3764;48.126;11.594;2022-07-10T03:49:55;17.20;99.90
7445;DHT22;3764;48.126;11.594;2022-07-10T03:52:22;17.20;99.90
7445;DHT22;3764;48.126;11.594;2022-07-10T03:54:50;17.20;99.90
7445;DHT22;3764;48.126;11.594;2022-07-10T03:57:20;17.20;99.90
7445;DHT22;3764;48.126;11.594;2022-07-10T04:00:05;17.20;99.90
7445;DHT22;3764;48.126;11.594;2022-07-10T04:02:32;17.20;99.90
7445;DHT22;3764;48.126;11.594;2022-07-10T04:04:59;17.20;99.90
7445;DHT22;3764;48.126;11.594;2022-07-10T04:07:26;17.20;99.90
7445;DHT22;3764;48.126;11.594;2022-07-10T04:09:55;17.10;99.90
7445;DHT22;3764;48.126;11.594;2022-07-10T04:12:22;17.10;99.90
7445;DHT22;3764;48.126;11.594;2022-07-10T04:14:49;17.10;99.90
7445;DHT22;3764;48.126;11.594;2022-07-10T04:17:17;17.10;99.90
7445;DHT22;3764;48.126;11.594;2022-07-10T04:19:44;17.10;99.90
7445;DHT22;3764;48.126;11.594;2022-07-10T04:22:11;17.00;99.90
7445;DHT22;3764;48.126;11.594;2022-07-10T04:24:39;17.00;99.90
7445;DHT22;3764;48.126;11.594;2022-07-10T04:27:08;17.00;99.90
7445;DHT22;3764;48.126;11.594;2022-07-10T04:29:35;16.90;99.90
7445;DHT22;3764;48.126;11.594;2022-07-10T04:32:02;16.90;99.90
7445;DHT22;3764;48.126;11.594;2022-07-10T04:34:29;16.90;99.90
7445;DHT22;3764;48.126;11.594;2022-07-10T04:36:57;16.90;99.90
7445;DHT22;3764;48.126;11.594;2022-07-10T04:39:24;16.90;99.90
7445;DHT22;3764;48.126;11.594;2022-07-10T04:41:51;16.90;99.90
7445;DHT22;3764;48.126;11.594;2022-07-10T04:44:19;16.90;99.90
7445;DHT22;3764;48.126;11.594;2022-07-10T04:46:46;16.90;99.90
7445;DHT22;3764;48.126;11.594;2022-07-10T04:49:14;16.90;99.90
7445;DHT22;3764;48.126;11.594;2022-07-10T04:51:41;16.90;99.90
7445;DHT22;3764;48.126;11.594;2022-07-10T04:54:08;16.80;99.90
7445;DHT22;3764;48.126;11.594;2022-07-10T04:56:35;16.80;99.90
7445;DHT22;3764;48.126;11.594;2022-07-10T04:59:02;16.80;99.90
7445;DHT22;3764;48.126;11.594;2022-07-10T05:01:31;16.80;99.90
7445;DHT22;3764;48.126;11.594;2022-07-10T05:03:58;16.80;99.90
7445;DHT22;3764;48.126;11.594;2022-07-10T05:06:25;16.80;99.90
7445;DHT22;3764;48.126;11.594;2022-07-10T05:08:52;16.80;99.90
7445;DHT22;3764;48.126;11.594;2022-07-10T05:11:21;16.80;99.90
7445;DHT22;3764;48.126;11.594;2022-07-10T05:13:48;16.80;99.90
7445;DHT22;3764;48.126;11.594;2022-07-10T05:16:15;16.80;99.90
7445;DHT22;3764;48.126;11.594;2022-07-10T05:18:44;16.70;99.90
7445;DHT22;3764;48.126;11.594;2022-07-10T05:21:11;16.70;99.90
7445;DHT22;3764;48.126;11.594;2022-07-10T05:23:39;16.70;99.90
7445;DHT22;3764;48.126;11.594;2022-07-10T05:26:06;16.70;99.90
7445;DHT22;3764;48.126;11.594;2022-07-10T05:28:33;16.70;99.90
7445;DHT22;3764;48.126;11.594;2022-07-10T05:31:00;16.70;99.90
7445;DHT22;3764;48.126;11.594;2022-07-10T05:33:27;16.60;99.90
7445;DHT22;3764;48.126;11.594;2022-07-10T05:35:56;16.60;99.90
7445;DHT22;3764;48.126;11.594;2022-07-10T05:38:23;16.60;99.90
7445;DHT22;3764;48.126;11.594;2022-07-10T05:40:50;16.60;99.90
7445;DHT22;3764;48.126;11.594;2022-07-10T05:43:19;16.60;99.90
7445;DHT22;3764;48.126;11.594;2022-07-10T05:45:46;16.60;99.90
7445;DHT22;3764;48.126;11.594;2022-07-10T05:48:13;16.60;99.90
7445;DHT22;3764;48.126;11.594;2022-07-10T05:50:40;16.60;99.90
7445;DHT22;3764;48.126;11.594;2022-07-10T05:53:09;16.50;99.90
7445;DHT22;3764;48.126;11.594;2022-07-10T05:55:36;16.50;99.90
7445;DHT22;3764;48.126;11.594;2022-07-10T05:58:03;16.50;99.90
7445;DHT22;3764;48.126;11.594;2022-07-10T06:00:30;16.50;99.90
7445;DHT22;3764;48.126;11.594;2022-07-10T06:02:57;16.50;99.90
7445;DHT22;3764;48.126;11.594;2022-07-10T06:05:24;16.50;99.90
7445;DHT22;3764;48.126;11.594;2022-07-10T06:07:51;16.50;99.90
7445;DHT22;3764;48.126;11.594;2022-07-10T06:10:20;16.50;99.90
7445;DHT22;3764;48.126;11.594;2022-07-10T06:12:47;16.60;99.90
7445;DHT22;3764;48.126;11.594;2022-07-10T06:15:14;16.60;99.90
7445;DHT22;3764;48.126;11.594;2022-07-10T06:17:41;16.60;99.90
7445;DHT22;3764;48.126;11.594;2022-07-10T06:20:09;16.60;99.90
7445;DHT22;3764;48.126;11.594;2022-07-10T06:22:36;16.60;99.90
7445;DHT22;3764;48.126;11.594;2022-07-10T06:25:07;16.60;99.90
7445;DHT22;3764;48.126;11.594;2022-07-10T06:27:36;16.70;99.90
7445;DHT22;3764;48.126;11.594;2022-07-10T06:30:03;16.70;99.90
7445;DHT22;3764;48.126;11.594;2022-07-10T06:32:30;16.60;99.90
7445;DHT22;3764;48.126;11.594;2022-07-10T06:34:57;16.60;99.90
7445;DHT22;3764;48.126;11.594;2022-07-10T06:37:25;16.60;99.90
7445;DHT22;3764;48.126;11.594;2022-07-10T06:39:52;16.60;99.90
7445;DHT22;3764;48.126;11.594;2022-07-10T06:42:19;16.60;99.90
7445;DHT22;3764;48.126;11.594;2022-07-10T06:44:47;16.60;99.90
7445;DHT22;3764;48.126;11.594;2022-07-10T06:47:17;16.60;99.90
7445;DHT22;3764;48.126;11.594;2022-07-10T06:50:02;16.60;99.90
7445;DHT22;3764;48.126;11.594;2022-07-10T06:52:31;16.60;99.90
7445;DHT22;3764;48.126;11.594;2022-07-10T06:54:59;16.60;99.90
7445;DHT22;3764;48.126;11.594;2022-07-10T06:57:26;16.60;99.90
7445;DHT22;3764;48.126;11.594;2022-07-10T06:59:55;16.60;99.90
7445;DHT22;3764;48.126;11.594;2022-07-10T07:02:22;16.70;99.90
7445;DHT22;3764;48.126;11.594;2022-07-10T07:04:49;16.70;99.90
7445;DHT22;3764;48.126;11.594;2022-07-10T07:07:16;16.60;99.90
7445;DHT22;3764;48.126;11.594;2022-07-10T07:09:43;16.70;99.90
7445;DHT22;3764;48.126;11.594;2022-07-10T07:12:15;16.70;99.90
7445;DHT22;3764;48.126;11.594;2022-07-10T07:14:43;16.70;99.90
7445;DHT22;3764;48.126;11.594;2022-07-10T07:17:11;16.70;99.90
7445;DHT22;3764;48.126;11.594;2022-07-10T07:19:40;16.70;99.90
7445;DHT22;3764;48.126;11.594;2022-07-10T07:22:25;16.70;99.90
7445;DHT22;3764;48.126;11.594;2022-07-10T07:25:07;16.70;99.90
7445;DHT22;3764;48.126;11.594;2022-07-10T07:27:35;16.70;99.90
7445;DHT22;3764;48.126;11.594;2022-07-10T07:30:03;16.70;99.90
7445;DHT22;3764;48.126;11.594;2022-07-10T07:32:33;16.70;99.90
7445;DHT22;3764;48.126;11.594;2022-07-10T07:35:00;16.70;99.90
7445;DHT22;3764;48.126;11.594;2022-07-10T07:37:38;16.70;99.90
7445;DHT22;3764;48.126;11.594;2022-07-10T07:40:07;16.70;99.90
7445;DHT22;3764;48.126;11.594;2022-07-10T07:42:34;16.70;99.90
7445;DHT22;3764;48.126;11.594;2022-07-10T07:45:02;16.70;99.90
7445;DHT22;3764;48.126;11.594;2022-07-10T07:47:30;16.70;99.90
7445;DHT22;3764;48.126;11.594;2022-07-10T07:50:02;16.70;99.90
7445;DHT22;3764;48.126;11.594;2022-07-10T07:52:29;16.70;99.90
7445;DHT22;3764;48.126;11.594;2022-07-10T07:54:57;16.70;99.90
7445;DHT22;3764;48.126;11.594;2022-07-10T07:57:24;16.70;99.90
7445;DHT22;3764;48.126;11.594;2022-07-10T07:59:51;16.70;99.90
7445;DHT22;3764;48.126;11.594;2022-07-10T08:02:18;16.80;99.90
7445;DHT22;3764;48.126;11.594;2022-07-10T08:04:45;16.80;99.90
7445;DHT22;3764;48.126;11.594;2022-07-10T08:07:14;16.70;99.90
7445;DHT22;3764;48.126;11.594;2022-07-10T08:09:41;16.70;99.90
7445;DHT22;3764;48.126;11.594;2022-07-10T08:12:10;16.80;99.90
7445;DHT22;3764;48.126;11.594;2022-07-10T08:14:38;16.80;99.90
7445;DHT22;3764;48.126;11.594;2022-07-10T08:17:05;16.80;99.90
7445;DHT22;3764;48.126;11.594;2022-07-10T08:19:32;16.90;99.90
7445;DHT22;3764;48.126;11.594;2022-07-10T08:21:59;16.90;99.90
7445;DHT22;3764;48.126;11.594;2022-07-10T08:24:28;16.90;99.90
7445;DHT22;3764;48.126;11.594;2022-07-10T08:26:55;17.00;99.90
7445;DHT22;3764;48.126;11.594;2022-07-10T08:29:22;17.00;99.90
7445;DHT22;3764;48.126;11.594;2022-07-10T08:31:49;17.00;99.90
7445;DHT22;3764;48.126;11.594;2022-07-10T08:34:16;17.00;99.90
7445;DHT22;3764;48.126;11.594;2022-07-10T08:36:43;17.10;99.90
7445;DHT22;3764;48.126;11.594;2022-07-10T08:39:10;17.10;99.90
7445;DHT22;3764;48.126;11.594;2022-07-10T08:41:39;17.10;99.90
7445;DHT22;3764;48.126;11.594;2022-07-10T08:44:07;17.20;99.90
7445;DHT22;3764;48.126;11.594;2022-07-10T08:46:35;17.20;99.90
7445;DHT22;3764;48.126;11.594;2022-07-10T08:49:08;17.20;99.90
7445;DHT22;3764;48.126;11.594;2022-07-10T08:51:37;17.20;99.90
7445;DHT22;3764;48.126;11.594;2022-07-10T08:54:05;17.20;99.90
7445;DHT22;3764;48.126;11.594;2022-07-10T08:56:34;17.30;99.90
7445;DHT22;3764;48.126;11.594;2022-07-10T08:59:04;17.30;99.90
7445;DHT22;3764;48.126;11.594;2022-07-10T09:01:31;17.30;99.90
7445;DHT22;3764;48.126;11.594;2022-07-10T09:03:58;17.30;99.90
7445;DHT22;3764;48.126;11.594;2022-07-10T09:06:27;17.40;99.90
7445;DHT22;3764;48.126;11.594;2022-07-10T09:09:00;17.50;99.90
7445;DHT22;3764;48.126;11.594;2022-07-10T09:11:27;17.50;99.90
7445;DHT22;3764;48.126;11.594;2022-07-10T09:13:57;17.50;99.90
7445;DHT22;3764;48.126;11.594;2022-07-10T09:16:27;17.50;99.90
7445;DHT22;3764;48.126;11.594;2022-07-10T09:18:55;17.50;99.90
7445;DHT22;3764;48.126;11.594;2022-07-10T09:21:23;17.50;99.90
7445;DHT22;3764;48.126;11.594;2022-07-10T09:23:51;17.50;99.90
7445;DHT22;3764;48.126;11.594;2022-07-10T09:26:18;17.50;99.90
7445;DHT22;3764;48.126;11.594;2022-07-10T09:28:45;17.50;99.90
7445;DHT22;3764;48.126;11.594;2022-07-10T09:31:13;17.60;99.90
7445;DHT22;3764;48.126;11.594;2022-07-10T09:33:42;17.60;99.90
7445;DHT22;3764;48.126;11.594;2022-07-10T09:36:10;17.70;99.90
7445;DHT22;3764;48.126;11.594;2022-07-10T09:38:52;17.70;99.90
7445;DHT22;3764;48.126;11.594;2022-07-10T09:41:25;17.70;99.90
7445;DHT22;3764;48.126;11.594;2022-07-10T09:43:54;17.80;99.90
7445;DHT22;3764;48.126;11.594;2022-07-10T09:46:23;17.80;99.90
7445;DHT22;3764;48.126;11.594;2022-07-10T09:49:03;17.80;99.90
7445;DHT22;3764;48.126;11.594;2022-07-10T09:51:32;17.80;99.90
7445;DHT22;3764;48.126;11.594;2022-07-10T09:54:01;17.80;99.90
7445;DHT22;3764;48.126;11.594;2022-07-10T09:56:33;17.90;99.90
7445;DHT22;3764;48.126;11.594;2022-07-10T09:59:01;17.90;99.90
7445;DHT22;3764;48.126;11.594;2022-07-10T10:01:30;18.00;99.90
7445;DHT22;3764;48.126;11.594;2022-07-10T10:03:58;18.00;99.90
7445;DHT22;3764;48.126;11.594;2022-07-10T10:06:30;18.10;99.90
7445;DHT22;3764;48.126;11.594;2022-07-10T10:09:03;18.10;99.90
7445;DHT22;3764;48.126;11.594;2022-07-10T10:11:33;18.10;99.90
7445;DHT22;3764;48.126;11.594;2022-07-10T10:14:03;18.10;99.90
7445;DHT22;3764;48.126;11.594;2022-07-10T10:16:33;18.10;99.90
7445;DHT22;3764;48.126;11.594;2022-07-10T10:19:02;18.10;99.90
7445;DHT22;3764;48.126;11.594;2022-07-10T10:21:48;18.20;99.90
7445;DHT22;3764;48.126;11.594;2022-07-10T10:24:16;18.20;99.90
7445;DHT22;3764;48.126;11.594;2022-07-10T10:26:44;18.30;99.90
7445;DHT22;3764;48.126;11.594;2022-07-10T10:29:12;18.30;99.90
7445;DHT22;3764;48.126;11.594;2022-07-10T10:31:39;18.40;99.90
7445;DHT22;3764;48.126;11.594;2022-07-10T10:34:08;18.40;99.90
7445;DHT22;3764;48.126;11.594;2022-07-10T10:36:46;18.50;99.90
7445;DHT22;3764;48.126;11.594;2022-07-10T10:39:17;18.50;99.90
7445;DHT22;3764;48.126;11.594;2022-07-10T10:41:50;18.50;99.90
7445;DHT22;3764;48.126;11.594;2022-07-10T10:44:26;18.60;99.90
7445;DHT22;3764;48.126;11.594;2022-07-10T10:47:02;18.70;99.90
7445;DHT22;3764;48.126;11.594;2022-07-10T10:49:52;18.80;99.90
7445;DHT22;3764;48.126;11.594;2022-07-10T10:52:20;18.80;99.90
7445;DHT22;3764;48.126;11.594;2022-07-10T10:55:05;18.80;99.90
7445;DHT22;3764;48.126;11.594;2022-07-10T10:57:39;18.90;99.90
7445;DHT22;3764;48.126;11.594;2022-07-10T11:00:13;18.90;99.90
7445;DHT22;3764;48.126;11.594;2022-07-10T11:02:42;18.90;99.90
7445;DHT22;3764;48.126;11.594;2022-07-10T11:05:41;18.90;99.90
7445;DHT22;3764;48.126;11.594;2022-07-10T11:08:09;18.90;99.90
7445;DHT22;3764;48.126;11.594;2022-07-10T11:10:39;18.90;99.90
7445;DHT22;3764;48.126;11.594;2022-07-10T11:13:08;18.90;99.90
7445;DHT22;3764;48.126;11.594;2022-07-10T11:15:37;18.90;99.90
7445;DHT22;3764;48.126;11.594;2022-07-10T11:18:06;18.90;99.90
7445;DHT22;3764;48.126;11.594;2022-07-10T11:20:35;19.00;99.90
7445;DHT22;3764;48.126;11.594;2022-07-10T11:23:32;19.00;99.90
7445;DHT22;3764;48.126;11.594;2022-07-10T11:26:07;19.00;99.90
7445;DHT22;3764;48.126;11.594;2022-07-10T11:28:49;19.00;99.90
7445;DHT22;3764;48.126;11.594;2022-07-10T11:31:16;18.90;99.90
7445;DHT22;3764;48.126;11.594;2022-07-10T11:33:45;18.90;99.90
7445;DHT22;3764;48.126;11.594;2022-07-10T11:36:15;18.90;99.90
7445;DHT22;3764;48.126;11.594;2022-07-10T11:38:43;18.90;99.90
7445;DHT22;3764;48.126;11.594;2022-07-10T11:41:16;19.00;99.90
7445;DHT22;3764;48.126;11.594;2022-07-10T11:43:50;19.00;99.90
7445;DHT22;3764;48.126;11.594;2022-07-10T11:46:18;19.00;99.90
7445;DHT22;3764;48.126;11.594;2022-07-10T11:48:46;19.10;99.90
7445;DHT22;3764;48.126;11.594;2022-07-10T11:51:25;19.10;99.90
7445;DHT22;3764;48.126;11.594;2022-07-10T11:53:54;19.20;99.90
7445;DHT22;3764;48.126;11.594;2022-07-10T11:56:23;19.20;99.90
7445;DHT22;3764;48.126;11.594;2022-07-10T11:58:59;19.20;99.90
7445;DHT22;3764;48.126;11.594;2022-07-10T12:01:26;19.20;99.90
7445;DHT22;3764;48.126;11.594;2022-07-10T12:03:59;19.20;99.90
7445;DHT22;3764;48.126;11.594;2022-07-10T12:06:27;19.30;99.90
7445;DHT22;3764;48.126;11.594;2022-07-10T12:08:55;19.20;99.90
7445;DHT22;3764;48.126;11.594;2022-07-10T12:11:23;19.30;99.90
7445;DHT22;3764;48.126;11.594;2022-07-10T12:13:51;19.30;99.90
7445;DHT22;3764;48.126;11.594;2022-07-10T12:16:20;19.30;99.90
7445;DHT22;3764;48.126;11.594;2022-07-10T12:18:48;19.40;99.90
7445;DHT22;3764;48.126;11.594;2022-07-10T12:21:16;19.40;99.90
7445;DHT22;3764;48.126;11.594;2022-07-10T12:23:46;19.40;99.90
7445;DHT22;3764;48.126;11.594;2022-07-10T12:26:14;19.40;99.90
7445;DHT22;3764;48.126;11.594;2022-07-10T12:28:51;19.50;99.90
7445;DHT22;3764;48.126;11.594;2022-07-10T12:31:27;19.50;99.90
7445;DHT22;3764;48.126;11.594;2022-07-10T12:33:56;19.60;99.90
7445;DHT22;3764;48.126;11.594;2022-07-10T12:36:41;19.60;99.90
7445;DHT22;3764;48.126;11.594;2022-07-10T12:39:09;19.60;99.90
7445;DHT22;3764;48.126;11.594;2022-07-10T12:41:55;19.70;99.90
7445;DHT22;3764;48.126;11.594;2022-07-10T12:44:39;19.80;99.90
7445;DHT22;3764;48.126;11.594;2022-07-10T12:47:08;19.90;99.90
7445;DHT22;3764;48.126;11.594;2022-07-10T12:49:51;19.90;99.90
7445;DHT22;3764;48.126;11.594;2022-07-10T12:52:22;19.90;99.90
7445;DHT22;3764;48.126;11.594;2022-07-10T12:55:05;19.80;99.90
7445;DHT22;3764;48.126;11.594;2022-07-10T12:57:33;19.80;99.90
7445;DHT22;3764;48.126;11.594;2022-07-10T13:00:14;19.90;99.90
7445;DHT22;3764;48.126;11.594;2022-07-10T13:02:41;19.90;99.90
7445;DHT22;3764;48.126;11.594;2022-07-10T13:05:08;19.90;99.90
7445;DHT22;3764;48.126;11.594;2022-07-10T13:07:36;19.80;99.90
7445;DHT22;3764;48.126;11.594;2022-07-10T13:10:05;19.90;99.90
7445;DHT22;3764;48.126;11.594;2022-07-10T13:12:32;20.00;99.90
7445;DHT22;3764;48.126;11.594;2022-07-10T13:15:00;20.00;99.90
7445;DHT22;3764;48.126;11.594;2022-07-10T13:17:28;20.00;99.90
7445;DHT22;3764;48.126;11.594;2022-07-10T13:19:55;20.00;99.90
7445;DHT22;3764;48.126;11.594;2022-07-10T13:22:23;20.00;99.90
7445;DHT22;3764;48.126;11.594;2022-07-10T13:24:50;20.00;99.90
7445;DHT22;3764;48.126;11.594;2022-07-10T13:27:17;20.00;99.90
7445;DHT22;3764;48.126;11.594;2022-07-10T13:29:46;20.00;99.90
7445;DHT22;3764;48.126;11.594;2022-07-10T13:32:14;19.90;99.90
7445;DHT22;3764;48.126;11.594;2022-07-10T13:34:42;20.00;99.90
7445;DHT22;3764;48.126;11.594;2022-07-10T13:37:09;20.00;99.90
7445;DHT22;3764;48.126;11.594;2022-07-10T13:39:39;20.00;99.90
7445;DHT22;3764;48.126;11.594;2022-07-10T13:42:06;19.90;99.90
7445;DHT22;3764;48.126;11.594;2022-07-10T13:44:33;20.00;99.90
7445;DHT22;3764;48.126;11.594;2022-07-10T13:47:00;20.00;99.90
7445;DHT22;3764;48.126;11.594;2022-07-10T13:49:27;20.00;99.90
7445;DHT22;3764;48.126;11.594;2022-07-10T13:51:55;20.00;99.90
7445;DHT22;3764;48.126;11.594;2022-07-10T13:54:22;20.00;99.90
7445;DHT22;3764;48.126;11.594;2022-07-10T13:56:49;20.10;99.90
7445;DHT22;3764;48.126;11.594;2022-07-10T13:59:17;20.10;99.90
7445;DHT22;3764;48.126;11.594;2022-07-10T14:01:44;20.10;99.90
7445;DHT22;3764;48.126;11.594;2022-07-10T14:04:11;20.20;99.90
7445;DHT22;3764;48.126;11.594;2022-07-10T14:06:38;20.20;99.90
7445;DHT22;3764;48.126;11.594;2022-07-10T14:09:06;20.20;99.90
7445;DHT22;3764;48.126;11.594;2022-07-10T14:11:34;20.20;99.90
7445;DHT22;3764;48.126;11.594;2022-07-10T14:14:01;20.20;99.90
7445;DHT22;3764;48.126;11.594;2022-07-10T14:16:28;20.30;99.90
7445;DHT22;3764;48.126;11.594;2022-07-10T14:18:55;20.30;99.90
7445;DHT22;3764;48.126;11.594;2022-07-10T14:21:22;20.20;99.90
7445;DHT22;3764;48.126;11.594;2022-07-10T14:23:50;20.20;99.90
7445;DHT22;3764;48.126;11.594;2022-07-10T14:26:19;20.20;99.70
7445;DHT22;3764;48.126;11.594;2022-07-10T14:28:46;20.20;99.90
7445;DHT22;3764;48.126;11.594;2022-07-10T14:31:14;20.30;99.90
7445;DHT22;3764;48.126;11.594;2022-07-10T14:33:41;20.30;99.80
7445;DHT22;3764;48.126;11.594;2022-07-10T14:36:08;20.40;99.90
7445;DHT22;3764;48.126;11.594;2022-07-10T14:38:35;20.40;99.70
7445;DHT22;3764;48.126;11.594;2022-07-10T14:41:04;20.40;99.60
7445;DHT22;3764;48.126;11.594;2022-07-10T14:43:33;20.40;99.40
7445;DHT22;3764;48.126;11.594;2022-07-10T14:46:00;20.50;99.50
7445;DHT22;3764;48.126;11.594;2022-07-10T14:48:31;20.50;99.40
7445;DHT22;3764;48.126;11.594;2022-07-10T14:50:59;20.40;99.00
7445;DHT22;3764;48.126;11.594;2022-07-10T14:53:26;20.40;99.10
7445;DHT22;3764;48.126;11.594;2022-07-10T14:55:53;20.40;99.90
7445;DHT22;3764;48.126;11.594;2022-07-10T14:58:20;20.50;99.00
7445;DHT22;3764;48.126;11.594;2022-07-10T15:00:49;20.50;99.30
7445;DHT22;3764;48.126;11.594;2022-07-10T15:03:16;20.60;99.90
7445;DHT22;3764;48.126;11.594;2022-07-10T15:05:43;20.60;99.80
7445;DHT22;3764;48.126;11.594;2022-07-10T15:08:10;20.70;98.40
7445;DHT22;3764;48.126;11.594;2022-07-10T15:10:37;20.80;98.50
7445;DHT22;3764;48.126;11.594;2022-07-10T15:13:07;20.90;98.30
7445;DHT22;3764;48.126;11.594;2022-07-10T15:15:34;20.90;97.80
7445;DHT22;3764;48.126;11.594;2022-07-10T15:18:02;20.90;97.50
7445;DHT22;3764;48.126;11.594;2022-07-10T15:20:30;20.90;98.10
7445;DHT22;3764;48.126;11.594;2022-07-10T15:22:57;20.90;97.60
7445;DHT22;3764;48.126;11.594;2022-07-10T15:25:24;21.00;97.30
7445;DHT22;3764;48.126;11.594;2022-07-10T15:27:51;21.00;97.30
7445;DHT22;3764;48.126;11.594;2022-07-10T15:30:19;21.00;97.30
7445;DHT22;3764;48.126;11.594;2022-07-10T15:32:46;21.10;98.30
7445;DHT22;3764;48.126;11.594;2022-07-10T15:35:15;21.10;96.90
7445;DHT22;3764;48.126;11.594;2022-07-10T15:37:42;21.10;97.10
7445;DHT22;3764;48.126;11.594;2022-07-10T15:40:09;21.20;97.80
7445;DHT22;3764;48.126;11.594;2022-07-10T15:42:36;21.30;96.90
7445;DHT22;3764;48.126;11.594;2022-07-10T15:45:04;21.40;97.20
7445;DHT22;3764;48.126;11.594;2022-07-10T15:47:32;21.40;97.00
7445;DHT22;3764;48.126;11.594;2022-07-10T15:49:59;21.50;96.30
7445;DHT22;3764;48.126;11.594;2022-07-10T15:52:27;21.40;96.00
7445;DHT22;3764;48.126;11.594;2022-07-10T15:54:54;21.50;96.40